createdAt,value
2018-12-07T00:02:05.669Z,1.20
2018-12-07T00:04:32.324Z,1.43
2018-12-07T00:06:58.963Z,1.20
2018-12-07T00:09:26.012Z,1.30
2018-12-07T00:11:52.702Z,1.83
2018-12-07T00:14:19.269Z,1.87
2018-12-07T00:16:45.829Z,1.43
2018-12-07T00:19:12.437Z,1.67
2018-12-07T00:21:39.013Z,1.50
2018-12-07T00:24:05.601Z,1.10
2018-12-07T00:26:32.197Z,1.43
2018-12-07T00:28:58.841Z,1.60
2018-12-07T00:31:25.406Z,1.50
2018-12-07T00:33:51.985Z,1.23
2018-12-07T00:36:18.613Z,1.50
2018-12-07T00:38:45.198Z,1.43
2018-12-07T00:41:11.778Z,3.90
2018-12-07T00:43:38.385Z,2.97
2018-12-07T00:46:04.951Z,3.37
2018-12-07T00:48:31.517Z,3.50
2018-12-07T00:50:58.102Z,2.20
2018-12-07T00:53:24.690Z,2.27
2018-12-07T00:55:51.261Z,2.20
2018-12-07T00:58:17.842Z,1.10
2018-12-07T01:00:44.411Z,0.80
2018-12-07T01:03:10.993Z,1.13
2018-12-07T01:05:37.557Z,0.87
2018-12-07T01:08:04.136Z,0.80
2018-12-07T01:10:30.699Z,0.83
2018-12-07T01:12:57.277Z,1.00
2018-12-07T01:15:23.842Z,0.90
2018-12-07T01:17:50.408Z,1.40
2018-12-07T01:20:17.021Z,1.00
2018-12-07T01:22:43.602Z,1.10
2018-12-07T01:25:10.196Z,0.80
2018-12-07T01:27:36.785Z,0.93
2018-12-07T01:30:04.381Z,0.63
2018-12-07T01:32:31.053Z,0.50
2018-12-07T01:34:57.615Z,0.60
2018-12-07T01:37:24.177Z,0.40
2018-12-07T01:39:50.789Z,0.63
2018-12-07T01:42:17.373Z,0.60
2018-12-07T01:44:43.957Z,0.63
2018-12-07T01:47:10.573Z,0.70
2018-12-07T01:49:37.155Z,0.40
2018-12-07T01:52:03.748Z,0.43
2018-12-07T01:54:30.332Z,0.37
2018-12-07T01:56:57.012Z,0.33
2018-12-07T01:59:23.566Z,0.80
2018-12-07T02:01:50.417Z,0.60
2018-12-07T02:04:16.981Z,0.60
2018-12-07T02:06:43.569Z,0.50
2018-12-07T02:09:10.143Z,0.40
2018-12-07T02:11:36.706Z,0.60
2018-12-07T02:14:03.616Z,0.50
2018-12-07T02:16:30.206Z,0.40
2018-12-07T02:18:56.790Z,0.70
2018-12-07T02:21:23.353Z,0.63
2018-12-07T02:23:50.024Z,0.57
2018-12-07T02:26:16.585Z,0.80
2018-12-07T02:28:43.145Z,0.67
2018-12-07T02:31:09.740Z,0.80
2018-12-07T02:33:36.377Z,1.03
2018-12-07T02:36:02.985Z,0.83
2018-12-07T02:38:29.550Z,0.93
2018-12-07T02:40:56.133Z,1.00
2018-12-07T02:43:22.706Z,0.80
2018-12-07T02:45:49.273Z,1.23
2018-12-07T02:48:15.856Z,1.00
2018-12-07T02:50:42.464Z,0.80
2018-12-07T02:53:09.045Z,0.70
2018-12-07T02:55:35.629Z,1.10
2018-12-07T02:58:02.222Z,0.70
2018-12-07T03:00:28.811Z,0.80
2018-12-07T03:02:55.460Z,0.80
2018-12-07T03:05:22.066Z,0.97
2018-12-07T03:07:48.660Z,0.83
2018-12-07T03:10:15.249Z,0.90
2018-12-07T03:12:41.830Z,0.97
2018-12-07T03:15:08.490Z,0.73
2018-12-07T03:17:35.069Z,0.90
2018-12-07T03:20:01.658Z,0.70
2018-12-07T03:22:28.222Z,0.80
2018-12-07T03:24:54.823Z,1.07
2018-12-07T03:27:21.385Z,0.80
2018-12-07T03:29:48.141Z,0.90
2018-12-07T03:32:14.734Z,1.00
2018-12-07T03:34:41.300Z,1.10
2018-12-07T03:37:07.897Z,1.27
2018-12-07T03:39:34.462Z,1.60
2018-12-07T03:42:01.065Z,1.20
2018-12-07T03:44:27.656Z,1.60
2018-12-07T03:46:54.249Z,1.53
2018-12-07T03:49:20.844Z,2.20
2018-12-07T03:51:47.426Z,2.60
2018-12-07T03:54:14.173Z,2.40
2018-12-07T03:56:40.728Z,3.00
2018-12-07T03:59:07.346Z,2.30
2018-12-07T04:01:33.993Z,2.70
2018-12-07T04:04:00.573Z,2.07
2018-12-07T04:06:27.161Z,2.03
2018-12-07T04:08:54.084Z,2.60
2018-12-07T04:11:20.683Z,3.03
2018-12-07T04:13:47.297Z,3.20
2018-12-07T04:16:13.893Z,3.00
2018-12-07T04:18:40.472Z,2.53
2018-12-07T04:21:07.074Z,1.97
2018-12-07T04:23:33.653Z,1.70
2018-12-07T04:26:00.220Z,1.90
2018-12-07T04:28:26.809Z,1.50
2018-12-07T04:30:53.390Z,1.33
2018-12-07T04:33:19.966Z,1.53
2018-12-07T04:35:46.621Z,1.50
2018-12-07T04:38:13.206Z,1.47
2018-12-07T04:40:39.769Z,1.60
2018-12-07T04:43:06.349Z,1.40
2018-12-07T04:45:32.961Z,1.73
2018-12-07T04:47:59.561Z,1.57
2018-12-07T04:50:26.137Z,1.60
2018-12-07T04:52:52.717Z,1.47
2018-12-07T04:55:19.332Z,1.60
2018-12-07T04:57:45.929Z,1.53
2018-12-07T05:00:12.546Z,1.80
2018-12-07T05:02:39.124Z,2.10
2018-12-07T05:05:05.726Z,1.90
2018-12-07T05:07:32.354Z,1.87
2018-12-07T05:09:58.998Z,2.43
2018-12-07T05:12:25.683Z,2.67
2018-12-07T05:14:52.310Z,2.50
2018-12-07T05:17:18.902Z,2.40
2018-12-07T05:19:45.465Z,2.70
2018-12-07T05:22:12.081Z,2.53
2018-12-07T05:24:38.649Z,3.17
2018-12-07T05:27:05.218Z,3.20
2018-12-07T05:29:31.800Z,3.30
2018-12-07T05:31:58.381Z,3.30
2018-12-07T05:34:24.999Z,3.53
2018-12-07T05:36:51.576Z,3.50
2018-12-07T05:39:18.238Z,3.97
2018-12-07T05:41:44.826Z,4.40
2018-12-07T05:44:11.394Z,4.67
2018-12-07T05:46:37.977Z,4.60
2018-12-07T05:49:04.552Z,4.63
2018-12-07T05:51:31.141Z,4.93
2018-12-07T05:53:57.717Z,5.13
2018-12-07T05:56:24.445Z,5.50
2018-12-07T05:58:51.101Z,5.37
2018-12-07T06:01:17.693Z,5.70
2018-12-07T06:03:44.256Z,5.13
2018-12-07T06:06:10.863Z,5.50
2018-12-07T06:08:37.429Z,5.50
2018-12-07T06:11:04.045Z,5.53
2018-12-07T06:13:30.637Z,5.77
2018-12-07T06:15:57.229Z,6.17
2018-12-07T06:18:23.797Z,5.50
2018-12-07T06:20:50.387Z,6.30
2018-12-07T06:23:16.954Z,5.67
2018-12-07T06:25:43.530Z,5.07
2018-12-07T06:28:10.097Z,5.40
2018-12-07T06:30:36.685Z,5.53
2018-12-07T06:33:03.302Z,5.60
2018-12-07T06:35:29.945Z,6.00
2018-12-07T06:37:56.534Z,5.43
2018-12-07T06:40:23.117Z,5.00
2018-12-07T06:42:49.704Z,5.53
2018-12-07T06:45:16.295Z,5.20
2018-12-07T06:47:42.885Z,5.10
2018-12-07T06:50:09.482Z,4.80
2018-12-07T06:52:36.049Z,4.53
2018-12-07T06:55:03.054Z,5.20
2018-12-07T06:57:29.656Z,4.57
2018-12-07T06:59:56.225Z,4.60
2018-12-07T07:02:22.785Z,4.77
2018-12-07T07:04:49.370Z,4.77
2018-12-07T07:07:15.933Z,4.40
2018-12-07T07:09:42.536Z,4.00
2018-12-07T07:12:09.132Z,4.30
2018-12-07T07:14:35.692Z,3.80
2018-12-07T07:17:02.280Z,4.03
2018-12-07T07:19:28.939Z,4.10
2018-12-07T07:21:55.525Z,3.70
2018-12-07T07:24:22.112Z,3.93
2018-12-07T07:26:48.675Z,3.53
2018-12-07T07:29:15.261Z,4.63
2018-12-07T07:31:43.604Z,4.87
2018-12-07T07:34:10.425Z,4.43
2018-12-07T07:36:37.017Z,4.10
2018-12-07T07:39:05.309Z,3.80
2018-12-07T07:41:31.889Z,4.17
2018-12-07T07:43:58.453Z,3.60
2018-12-07T07:46:25.037Z,3.57
2018-12-07T07:48:51.629Z,3.60
2018-12-07T07:51:18.192Z,3.70
2018-12-07T07:53:44.786Z,3.87
2018-12-07T07:56:15.301Z,3.30
2018-12-07T07:58:39.918Z,3.87
2018-12-07T08:01:06.575Z,3.50
2018-12-07T08:03:33.156Z,3.33
2018-12-07T08:05:59.757Z,3.57
2018-12-07T08:08:26.704Z,3.13
2018-12-07T08:10:53.288Z,3.37
2018-12-07T08:13:19.873Z,3.20
2018-12-07T08:15:46.493Z,2.90
2018-12-07T08:18:13.076Z,2.90
2018-12-07T08:20:39.649Z,3.07
2018-12-07T08:23:06.234Z,2.90
2018-12-07T08:25:33.325Z,2.60
2018-12-07T08:27:59.911Z,2.83
2018-12-07T08:30:26.488Z,2.37
2018-12-07T08:32:53.085Z,2.00
2018-12-07T08:35:19.672Z,2.40
2018-12-07T08:37:46.233Z,2.60
2018-12-07T08:40:12.969Z,4.03
2018-12-07T08:42:39.558Z,2.43
2018-12-07T08:45:06.169Z,2.07
2018-12-07T08:47:32.761Z,2.43
2018-12-07T08:49:59.365Z,1.53
2018-12-07T08:52:25.929Z,1.80
2018-12-07T08:54:52.532Z,2.23
2018-12-07T08:57:19.122Z,2.10
2018-12-07T08:59:45.689Z,1.53
2018-12-07T09:02:12.349Z,1.93
2018-12-07T09:04:38.925Z,1.50
2018-12-07T09:07:05.551Z,1.40
2018-12-07T09:09:32.116Z,1.70
2018-12-07T09:11:58.797Z,1.50
2018-12-07T09:14:25.408Z,1.40
2018-12-07T09:16:52.115Z,1.33
2018-12-07T09:19:19.027Z,1.57
2018-12-07T09:21:46.147Z,1.30
2018-12-07T09:24:12.835Z,1.23
2018-12-07T09:26:39.523Z,1.53
2018-12-07T09:29:06.332Z,1.57
2018-12-07T09:31:32.958Z,1.63
2018-12-07T09:34:01.177Z,3.23
2018-12-07T09:36:27.985Z,2.77
2018-12-07T09:38:54.581Z,1.50
2018-12-07T09:41:21.169Z,2.40
2018-12-07T09:43:47.790Z,1.27
2018-12-07T09:46:14.479Z,1.40
2018-12-07T09:48:41.073Z,2.90
2018-12-07T09:51:07.652Z,1.90
2018-12-07T09:53:34.595Z,3.03
2018-12-07T09:56:01.293Z,1.47
2018-12-07T09:58:27.940Z,1.63
2018-12-07T10:00:54.732Z,3.50
2018-12-07T10:03:22.473Z,1.90
2018-12-07T10:05:49.250Z,1.93
2018-12-07T10:08:15.933Z,3.27
2018-12-07T10:10:42.575Z,1.43
2018-12-07T10:13:09.296Z,1.93
2018-12-07T10:15:35.968Z,2.00
2018-12-07T10:18:02.566Z,2.00
2018-12-07T10:20:29.274Z,1.20
2018-12-07T10:22:55.891Z,1.20
2018-12-07T10:25:22.464Z,1.80
2018-12-07T10:27:49.068Z,1.30
2018-12-07T10:30:15.636Z,1.33
2018-12-07T10:32:42.866Z,1.60
2018-12-07T10:35:09.466Z,0.70
2018-12-07T10:37:36.029Z,1.10
2018-12-07T10:40:03.244Z,0.70
2018-12-07T10:42:29.819Z,1.60
2018-12-07T10:44:56.465Z,0.90
2018-12-07T10:47:23.072Z,0.87
2018-12-07T10:49:49.646Z,0.70
2018-12-07T10:52:16.231Z,0.67
2018-12-07T10:54:42.805Z,0.53
2018-12-07T10:57:09.369Z,0.43
2018-12-07T10:59:35.971Z,0.60
2018-12-07T11:02:08.364Z,0.40
2018-12-07T11:04:40.656Z,0.47
2018-12-07T11:07:12.881Z,0.80
2018-12-07T11:09:45.184Z,0.60
2018-12-07T11:12:17.827Z,0.60
2018-12-07T11:14:50.306Z,0.60
2018-12-07T11:17:22.673Z,0.60
2018-12-07T11:19:55.052Z,0.70
2018-12-07T11:22:27.329Z,0.90
2018-12-07T11:24:59.748Z,0.67
2018-12-07T11:27:32.054Z,0.50
2018-12-07T11:30:03.245Z,2.50
2018-12-07T11:32:31.780Z,3.50
2018-12-07T11:35:00.292Z,2.10
2018-12-07T11:37:26.857Z,1.20
2018-12-07T11:39:53.945Z,0.90
2018-12-07T11:42:20.513Z,0.60
2018-12-07T11:44:47.106Z,0.97
2018-12-07T11:47:13.717Z,1.53
2018-12-07T11:49:40.342Z,0.90
2018-12-07T11:52:06.976Z,0.33
2018-12-07T11:54:33.569Z,0.30
2018-12-07T11:57:00.162Z,0.50
2018-12-07T11:59:26.750Z,1.33
2018-12-07T12:01:53.361Z,0.53
2018-12-07T12:04:19.940Z,0.70
2018-12-07T12:06:46.629Z,0.70
2018-12-07T12:09:13.193Z,0.50
2018-12-07T12:11:39.769Z,0.40
2018-12-07T12:14:06.344Z,0.30
2018-12-07T12:16:32.910Z,0.30
2018-12-07T12:18:59.489Z,1.03
2018-12-07T12:21:26.084Z,0.60
2018-12-07T12:23:53.837Z,1.00
2018-12-07T12:26:20.717Z,0.67
2018-12-07T12:28:47.313Z,0.70
2018-12-07T12:31:13.906Z,0.47
2018-12-07T12:33:40.569Z,0.50
2018-12-07T12:36:07.136Z,0.40
2018-12-07T12:38:33.733Z,0.57
2018-12-07T12:41:00.312Z,0.83
2018-12-07T12:43:26.902Z,1.03
2018-12-07T12:45:53.480Z,0.83
2018-12-07T12:48:20.070Z,0.70
2018-12-07T12:50:46.632Z,0.70
2018-12-07T12:53:13.209Z,2.30
2018-12-07T12:55:39.821Z,0.40
2018-12-07T12:58:06.381Z,0.70
2018-12-07T13:00:32.977Z,1.37
2018-12-07T13:02:59.608Z,0.70
2018-12-07T13:05:26.260Z,0.30
2018-12-07T13:07:52.820Z,0.23
2018-12-07T13:10:19.414Z,0.20
2018-12-07T13:12:46.010Z,0.40
2018-12-07T13:15:12.654Z,0.40
2018-12-07T13:17:39.225Z,0.30
2018-12-07T13:20:06.729Z,0.30
2018-12-07T13:22:33.537Z,0.40
2018-12-07T13:25:00.106Z,0.10
2018-12-07T13:27:26.682Z,0.30
2018-12-07T13:29:53.245Z,0.43
2018-12-07T13:32:19.834Z,0.40
2018-12-07T13:34:46.398Z,0.33
2018-12-07T13:37:13.018Z,0.50
2018-12-07T13:39:39.735Z,0.27
2018-12-07T13:42:06.678Z,3.90
2018-12-07T13:44:33.361Z,1.80
2018-12-07T13:47:00.203Z,5.23
2018-12-07T13:49:26.959Z,0.63
2018-12-07T13:51:53.700Z,0.40
2018-12-07T13:54:20.507Z,0.30
2018-12-07T13:56:47.461Z,0.60
2018-12-07T13:59:14.430Z,0.50
2018-12-07T14:01:41.202Z,0.50
2018-12-07T14:04:07.810Z,0.30
2018-12-07T14:06:34.455Z,0.60
2018-12-07T14:09:01.161Z,0.30
2018-12-07T14:11:27.869Z,0.43
2018-12-07T14:13:54.536Z,0.47
2018-12-07T14:16:21.273Z,0.40
2018-12-07T14:18:47.853Z,0.30
2018-12-07T14:21:14.541Z,0.90
2018-12-07T14:23:41.356Z,1.63
2018-12-07T14:26:08.141Z,0.57
2018-12-07T14:28:35.010Z,0.50
2018-12-07T14:31:01.888Z,0.53
2018-12-07T14:33:28.681Z,0.37
2018-12-07T14:35:55.536Z,0.40
2018-12-07T14:38:23.027Z,0.33
2018-12-07T14:40:49.673Z,0.47
2018-12-07T14:43:16.302Z,0.33
2018-12-07T14:45:43.141Z,0.50
2018-12-07T14:48:09.963Z,0.50
2018-12-07T14:50:36.599Z,0.30
2018-12-07T14:53:03.358Z,0.23
2018-12-07T14:55:30.042Z,0.30
2018-12-07T14:57:56.909Z,0.47
2018-12-07T15:00:23.857Z,0.40
2018-12-07T15:02:50.519Z,0.40
2018-12-07T15:05:17.253Z,0.73
2018-12-07T15:07:43.920Z,0.50
2018-12-07T15:10:10.577Z,0.57
2018-12-07T15:12:37.474Z,0.60
2018-12-07T15:15:05.041Z,0.50
2018-12-07T15:17:31.874Z,0.50
2018-12-07T15:19:58.595Z,1.17
2018-12-07T15:22:25.267Z,0.77
2018-12-07T15:24:51.912Z,2.67
2018-12-07T15:27:18.518Z,1.73
2018-12-07T15:29:45.072Z,0.60
2018-12-07T15:32:11.744Z,0.97
2018-12-07T15:34:38.386Z,1.20
2018-12-07T15:37:05.105Z,0.93
2018-12-07T15:39:31.706Z,0.40
2018-12-07T15:41:58.396Z,0.57
2018-12-07T15:44:25.196Z,0.50
2018-12-07T15:46:51.924Z,0.50
2018-12-07T15:49:18.739Z,1.23
2018-12-07T15:51:45.420Z,0.73
2018-12-07T15:54:12.423Z,0.70
2018-12-07T15:56:39.033Z,0.80
2018-12-07T15:59:05.897Z,0.47
2018-12-07T16:01:32.853Z,0.90
2018-12-07T16:03:59.554Z,0.97
2018-12-07T16:06:26.465Z,0.90
2018-12-07T16:08:53.153Z,0.40
2018-12-07T16:11:19.857Z,0.70
2018-12-07T16:13:46.655Z,0.60
2018-12-07T16:16:13.533Z,0.93
2018-12-07T16:18:40.170Z,0.67
2018-12-07T16:21:06.890Z,0.67
2018-12-07T16:23:33.560Z,0.70
2018-12-07T16:26:00.358Z,0.60
2018-12-07T16:28:27.237Z,0.50
2018-12-07T16:30:53.860Z,0.60
2018-12-07T16:33:21.574Z,0.70
2018-12-07T16:35:48.456Z,0.70
2018-12-07T16:38:15.180Z,0.60
2018-12-07T16:40:42.152Z,0.60
2018-12-07T16:43:09.642Z,0.60
2018-12-07T16:45:36.219Z,0.80
2018-12-07T16:48:02.880Z,0.77
2018-12-07T16:50:29.662Z,0.50
2018-12-07T16:52:56.444Z,0.60
2018-12-07T16:55:24.667Z,0.90
2018-12-07T16:57:52.754Z,0.97
2018-12-07T17:00:19.415Z,1.33
2018-12-07T17:02:46.279Z,0.57
2018-12-07T17:05:13.141Z,0.60
2018-12-07T17:07:39.852Z,1.40
2018-12-07T17:10:06.941Z,0.90
2018-12-07T17:12:33.682Z,0.60
2018-12-07T17:15:00.305Z,0.80
2018-12-07T17:17:26.938Z,0.83
2018-12-07T17:19:53.635Z,0.60
2018-12-07T17:22:20.325Z,1.00
2018-12-07T17:24:47.159Z,0.60
2018-12-07T17:27:13.909Z,0.50
2018-12-07T17:29:40.713Z,0.90
2018-12-07T17:32:07.602Z,0.60
2018-12-07T17:34:34.603Z,0.80
2018-12-07T17:37:01.515Z,0.73
2018-12-07T17:39:28.511Z,0.67
2018-12-07T17:41:55.294Z,0.90
2018-12-07T17:44:22.179Z,1.33
2018-12-07T17:46:48.847Z,2.00
2018-12-07T17:49:15.753Z,1.30
2018-12-07T17:51:42.511Z,1.90
2018-12-07T17:54:09.156Z,1.30
2018-12-07T17:56:36.008Z,2.90
2018-12-07T17:59:02.870Z,0.70
2018-12-07T18:01:29.549Z,1.30
2018-12-07T18:03:56.129Z,0.70
2018-12-07T18:06:23.023Z,0.70
2018-12-07T18:08:49.766Z,0.60
2018-12-07T18:11:16.572Z,0.43
2018-12-07T18:13:43.510Z,0.63
2018-12-07T18:16:10.362Z,0.50
2018-12-07T18:18:37.063Z,0.70
2018-12-07T18:21:03.827Z,0.77
2018-12-07T18:23:30.627Z,0.80
2018-12-07T18:25:57.344Z,1.27
2018-12-07T18:28:24.114Z,0.77
2018-12-07T18:30:50.949Z,0.93
2018-12-07T18:33:17.661Z,1.10
2018-12-07T18:35:44.344Z,1.13
2018-12-07T18:38:11.225Z,1.10
2018-12-07T18:40:38.007Z,0.93
2018-12-07T18:43:04.848Z,1.27
2018-12-07T18:45:31.561Z,1.30
2018-12-07T18:47:58.168Z,1.20
2018-12-07T18:50:24.999Z,1.00
2018-12-07T18:52:51.745Z,1.00
2018-12-07T18:55:18.441Z,0.90
2018-12-07T18:57:45.104Z,1.20
2018-12-07T19:00:12.114Z,1.40
2018-12-07T19:02:38.911Z,1.30
2018-12-07T19:05:05.844Z,1.00
2018-12-07T19:07:32.727Z,1.40
2018-12-07T19:09:59.450Z,1.40
2018-12-07T19:12:26.321Z,1.13
2018-12-07T19:14:52.982Z,1.13
2018-12-07T19:17:19.619Z,1.00
2018-12-07T19:19:46.303Z,0.73
2018-12-07T19:22:12.873Z,0.93
2018-12-07T19:24:39.601Z,1.30
2018-12-07T19:27:06.623Z,1.50
2018-12-07T19:29:33.382Z,1.50
2018-12-07T19:32:00.083Z,1.70
2018-12-07T19:34:26.929Z,1.23
2018-12-07T19:36:53.706Z,1.30
2018-12-07T19:39:20.432Z,1.27
2018-12-07T19:41:47.056Z,1.43
2018-12-07T19:44:13.632Z,1.83
2018-12-07T19:46:40.300Z,1.60
2018-12-07T19:49:07.246Z,1.60
2018-12-07T19:51:33.979Z,1.37
2018-12-07T19:54:00.724Z,1.30
2018-12-07T19:56:27.687Z,1.83
2018-12-07T19:58:54.329Z,1.43
2018-12-07T20:01:20.979Z,1.27
2018-12-07T20:03:47.629Z,1.10
2018-12-07T20:06:14.383Z,1.20
2018-12-07T20:08:41.005Z,1.13
2018-12-07T20:11:07.597Z,1.40
2018-12-07T20:13:34.388Z,1.63
2018-12-07T20:16:01.063Z,1.40
2018-12-07T20:18:27.734Z,1.13
2018-12-07T20:20:54.377Z,1.20
2018-12-07T20:23:20.978Z,1.37
2018-12-07T20:25:47.906Z,1.40
2018-12-07T20:28:14.784Z,1.93
2018-12-07T20:30:41.421Z,1.40
2018-12-07T20:33:07.981Z,1.27
2018-12-07T20:35:34.569Z,1.07
2018-12-07T20:38:01.160Z,1.40
2018-12-07T20:40:28.537Z,1.70
2018-12-07T20:42:55.569Z,1.67
2018-12-07T20:45:22.321Z,2.13
2018-12-07T20:47:48.893Z,1.47
2018-12-07T20:50:15.791Z,1.83
2018-12-07T20:52:42.469Z,1.90
2018-12-07T20:55:09.086Z,1.90
2018-12-07T20:57:35.726Z,1.87
2018-12-07T21:00:02.467Z,1.50
2018-12-07T21:02:29.432Z,1.90
2018-12-07T21:04:56.319Z,1.87
2018-12-07T21:07:33.756Z,2.37
2018-12-07T21:13:22.363Z,1.60
2018-12-07T21:15:49.314Z,1.73
2018-12-07T21:18:16.045Z,2.00
2018-12-07T21:20:42.837Z,2.00
2018-12-07T21:23:09.567Z,1.70
2018-12-07T21:25:36.261Z,1.77
2018-12-07T21:28:03.083Z,2.40
2018-12-07T21:30:38.681Z,2.40
2018-12-07T21:33:05.584Z,2.00
2018-12-07T21:35:38.185Z,2.40
2018-12-07T21:38:04.895Z,2.20
2018-12-07T21:40:31.787Z,2.40
2018-12-07T21:42:58.673Z,2.37
2018-12-07T21:45:25.439Z,2.50
2018-12-07T21:48:02.141Z,2.13
2018-12-07T21:50:28.722Z,2.53
2018-12-07T21:52:55.445Z,2.57
2018-12-07T21:55:22.118Z,2.73
2018-12-07T21:57:49.191Z,3.63
2018-12-07T22:00:16.014Z,2.43
2018-12-07T22:02:42.592Z,2.10
2018-12-07T22:05:09.272Z,2.67
2018-12-07T22:07:35.930Z,2.77
2018-12-07T22:10:02.796Z,2.57
2018-12-07T22:12:29.537Z,2.90
2018-12-07T22:14:56.439Z,3.13
2018-12-07T22:17:23.199Z,2.67
2018-12-07T22:19:49.835Z,2.60
2018-12-07T22:22:16.401Z,3.00
2018-12-07T22:24:42.995Z,3.07
2018-12-07T22:27:09.782Z,2.87
2018-12-07T22:29:36.489Z,3.10
2018-12-07T22:32:03.315Z,2.70
2018-12-07T22:34:30.117Z,2.83
2018-12-07T22:36:56.960Z,2.30
2018-12-07T22:39:24.036Z,2.63
2018-12-07T22:41:51.107Z,3.20
2018-12-07T22:44:17.848Z,2.53
2018-12-07T22:46:44.448Z,2.73
2018-12-07T22:49:11.038Z,2.90
2018-12-07T22:51:37.614Z,2.40
2018-12-07T22:54:04.225Z,1.80
2018-12-07T22:56:30.825Z,3.00
2018-12-07T22:58:57.400Z,2.17
2018-12-07T23:01:24.041Z,2.23
2018-12-07T23:03:50.747Z,2.67
2018-12-07T23:06:17.408Z,2.10
2018-12-07T23:08:44.014Z,2.63
2018-12-07T23:11:10.636Z,2.07
2018-12-07T23:13:37.240Z,2.73
2018-12-07T23:16:03.904Z,2.30
2018-12-07T23:18:30.476Z,2.30
2018-12-07T23:20:57.097Z,2.43
2018-12-07T23:23:23.708Z,2.67
2018-12-07T23:25:50.333Z,2.50
2018-12-07T23:28:19.613Z,2.33
2018-12-07T23:30:45.485Z,1.97
2018-12-07T23:33:12.078Z,1.53
2018-12-07T23:35:38.659Z,2.67
2018-12-07T23:38:05.266Z,2.47
2018-12-07T23:40:31.858Z,2.57
2018-12-07T23:43:00.410Z,2.47
2018-12-07T23:45:27.013Z,2.30
2018-12-07T23:47:53.604Z,2.20
2018-12-07T23:50:20.209Z,2.80
2018-12-07T23:52:46.793Z,2.13
2018-12-07T23:55:13.405Z,2.20
2018-12-07T23:57:40.272Z,2.43
